Time;durP1;ratioP1;P1;durP2;ratioP2;P2;SDS_P1;SDS_P2;PMS_P1;PMS_P2;Temp;Humidity;BMP_temperature;BMP_pressure;BME280_temperature;BME280_humidity;BME280_pressure;Samples;Min_cycle;Max_cycle;Signal;HPM_P1;HPM_P2
2023/02/26 00:01:05;;;;;;;1.53;1.30;;;;;;;3.19;75.73;94744.50;6208184;23;20188;-93
2023/02/26 00:03:42;;;;;;;3.10;1.93;;;;;;;3.26;75.94;94739.59;6208767;23;20212;-94
2023/02/26 00:06:17;;;;;;;4.20;3.00;;;;;;;3.26;75.14;94747.25;6209178;23;20189;-91
2023/02/26 00:08:47;;;;;;;5.10;3.13;;;;;;;3.12;74.94;94744.31;6208387;23;20195;-91
2023/02/26 00:11:36;;;;;;;2.90;2.33;;;;;;;3.15;75.22;94747.50;6208186;23;20201;-94
2023/02/26 00:14:10;;;;;;;3.30;2.27;;;;;;;3.18;75.25;94752.28;6209013;23;20177;-92
2023/02/26 00:16:52;;;;;;;3.27;2.53;;;;;;;3.24;75.19;94759.31;6208796;23;20162;-92
2023/02/26 00:19:49;;;;;;;;;;;;;;;;;;;;;
2023/02/26 00:22:46;;;;;;;1.80;1.70;;;;;;;3.01;76.06;94767.44;6208320;23;20192;-93
2023/02/26 00:25:34;;;;;;;2.30;1.70;;;;;;;2.97;76.34;94768.69;6209092;23;20269;-93
2023/02/26 00:31:12;;;;;;;1.70;1.60;;;;;;;2.82;75.86;94774.47;6208251;23;20177;-93
2023/02/26 00:33:50;;;;;;;2.00;1.80;;;;;;;2.80;76.45;94774.63;6209200;23;20303;-93
2023/02/26 00:36:47;;;;;;;;;;;;;;;;;;;;;
2023/02/26 00:39:41;;;;;;;2.10;1.90;;;;;;;2.65;77.24;94776.13;6209213;23;20754;-94
2023/02/26 00:42:27;;;;;;;1.83;1.70;;;;;;;2.79;77.16;94773.03;6210648;23;20846;-94
2023/02/26 00:45:26;;;;;;;2.20;2.00;;;;;;;2.93;76.53;94769.13;6225908;23;20202;-94
2023/02/26 00:48:37;;;;;;;1.63;1.53;;;;;;;2.93;76.63;94774.22;6206730;23;20257;-93
2023/02/26 00:51:37;;;;;;;;;;;;;;;;;;;;;
2023/02/26 00:57:35;;;;;;;1.53;1.43;;;;;;;2.84;75.64;94785.31;6180512;23;20178;-93
2023/02/26 01:00:35;;;;;;;1.30;1.20;;;;;;;2.80;74.94;94776.38;6189424;23;20173;-93
2023/02/26 01:03:31;;;;;;;1.23;1.10;;;;;;;2.65;74.63;94778.66;6198993;23;20198;-94
2023/02/26 01:09:05;;;;;;;1.37;1.27;;;;;;;2.19;76.40;94787.31;6201875;23;20174;-93
2023/02/26 01:12:07;;;;;;;;;;;;;;;;;;;;;
2023/02/26 01:15:00;;;;;;;1.10;1.10;;;;;;;2.37;76.71;94780.50;6208743;23;20176;-93
2023/02/26 01:20:56;;;;;;;1.77;1.10;;;;;;;2.56;75.62;94779.53;6176939;23;20162;-94
2023/02/26 01:23:45;;;;;;;1.30;1.20;;;;;;;2.38;76.25;94774.47;6167322;23;20536;-93
2023/02/26 01:26:22;;;;;;;2.43;1.30;;;;;;;2.32;75.73;94780.13;6208406;23;20800;-94
2023/02/26 01:32:32;;;;;;;1.37;1.20;;;;;;;2.42;76.00;94781.66;6191387;23;20197;-92
2023/02/26 01:35:46;;;;;;;1.77;1.30;;;;;;;2.45;75.62;94783.13;6175679;23;20521;-91
2023/02/26 01:38:44;;;;;;;1.40;1.30;;;;;;;2.42;75.60;94783.41;6208706;23;20173;-91
2023/02/26 01:41:36;;;;;;;1.53;1.43;;;;;;;2.28;75.68;94789.00;6210107;23;20232;-91
2023/02/26 01:47:29;;;;;;;1.77;1.40;;;;;;;2.34;75.81;94798.56;6204386;23;20187;-92
2023/02/26 01:50:07;;;;;;;2.37;1.40;;;;;;;2.27;75.59;94797.56;6207471;23;20519;-92
2023/02/26 01:53:33;;;;;;;;;;;;;;;;;;;;;
2023/02/26 01:59:54;;;;;;;1.37;1.27;;;;;;;2.35;75.28;94798.41;6158963;23;20204;-91
2023/02/26 02:02:28;;;;;;;3.73;1.43;;;;;;;2.32;74.72;94808.84;6208049;23;20189;-90
2023/02/26 02:05:00;;;;;;;1.77;1.50;;;;;;;2.30;74.51;94813.31;6208251;23;20668;-91
2023/02/26 02:07:37;;;;;;;3.27;1.50;;;;;;;2.38;73.56;94812.56;6207568;23;20161;-92
2023/02/26 02:10:21;;;;;;;1.47;1.37;;;;;;;2.40;73.92;94816.56;6207393;23;20191;-91
2023/02/26 02:13:06;;;;;;;1.83;1.60;;;;;;;2.33;73.06;94815.53;6207902;23;20693;-92
2023/02/26 02:15:50;;;;;;;1.40;1.30;;;;;;;2.31;73.91;94816.66;6207842;23;20616;-91
2023/02/26 02:18:22;;;;;;;1.50;1.40;;;;;;;2.35;73.49;94811.13;6208801;23;20158;-90
2023/02/26 02:21:30;;;;;;;1.60;1.50;;;;;;;2.31;72.99;94817.41;6208323;23;20177;-92
2023/02/26 02:24:11;;;;;;;1.47;1.37;;;;;;;2.28;73.29;94817.72;6208090;23;20547;-92
2023/02/26 02:26:58;;;;;;;1.40;1.30;;;;;;;2.36;73.18;94817.00;6208388;23;20216;-91
2023/02/26 02:32:31;;;;;;;2.67;1.50;;;;;;;2.67;72.73;94818.22;5085140;27;21440;-89
2023/02/26 02:35:19;;;;;;;1.97;1.40;;;;;;;2.57;72.47;94826.84;5085166;28;20272;-93
2023/02/26 02:37:56;;;;;;;1.73;1.60;;;;;;;2.48;73.60;94823.47;5084196;28;20192;-90
2023/02/26 02:40:26;;;;;;;1.53;1.43;;;;;;;2.37;73.63;94832.09;5084320;28;20207;-92
2023/02/26 02:43:20;;;;;;;;;;;;;;;;;;;;;
2023/02/26 02:45:51;;;;;;;1.80;1.37;;;;;;;2.55;73.87;94831.28;5064832;28;20572;-91
2023/02/26 02:48:32;;;;;;;1.47;1.37;;;;;;;2.54;73.03;94832.22;5064220;28;20201;-92
2023/02/26 02:51:16;;;;;;;1.33;1.23;;;;;;;2.45;73.00;94833.13;5064344;28;20283;-89
2023/02/26 02:54:05;;;;;;;1.40;1.30;;;;;;;2.46;72.66;94827.91;5064218;28;20229;-92
2023/02/26 02:56:51;;;;;;;1.57;1.40;;;;;;;2.24;73.03;94836.75;5061211;28;20204;-89
2023/02/26 03:02:36;;;;;;;2.60;1.40;;;;;;;2.22;73.73;94845.44;5062430;28;20850;-90
2023/02/26 03:05:23;;;;;;;1.57;1.20;;;;;;;2.10;73.34;94847.41;5075839;28;20311;-89
2023/02/26 03:08:07;;;;;;;1.47;1.20;;;;;;;2.05;73.24;94852.09;5084264;28;20585;-90
2023/02/26 03:10:48;;;;;;;1.57;1.40;;;;;;;2.00;72.27;94857.59;5084142;28;20220;-90
2023/02/26 03:13:47;;;;;;;1.50;1.37;;;;;;;1.95;71.85;94856.41;5084320;28;20220;-90
2023/02/26 03:16:47;;;;;;;5.00;1.50;;;;;;;1.85;72.30;94856.47;5078682;28;20216;-90
2023/02/26 03:19:30;;;;;;;1.80;1.30;;;;;;;1.91;72.72;94863.53;5089724;28;20201;-92
2023/02/26 03:22:05;;;;;;;4.43;3.63;;;;;;;1.96;71.45;94873.22;5084081;28;20224;-93
2023/02/26 03:24:42;;;;;;;11.07;7.03;;;;;;;2.06;70.86;94868.91;5084161;28;20208;-92
2023/02/26 03:27:25;;;;;;;11.07;7.77;;;;;;;2.20;71.09;94865.88;5084053;28;20261;-89
2023/02/26 03:29:58;;;;;;;2.27;1.90;;;;;;;2.19;70.09;94873.66;5084242;28;20197;-90
2023/02/26 03:32:37;;;;;;;2.30;1.30;;;;;;;2.09;70.00;94881.34;5083481;28;20267;-90
2023/02/26 03:35:13;;;;;;;3.10;1.40;;;;;;;1.87;70.54;94884.25;5084317;28;20192;-92
2023/02/26 03:37:59;;;;;;;1.57;1.40;;;;;;;1.97;71.49;94887.53;5083373;28;20689;-89
2023/02/26 03:40:43;;;;;;;1.80;1.30;;;;;;;2.00;70.62;94889.78;5083547;28;20208;-90
2023/02/26 03:46:42;;;;;;;3.03;1.40;;;;;;;2.17;70.20;94886.47;5053287;28;20208;-92
2023/02/26 03:55:00;;;;;;;2.67;1.30;;;;;;;1.84;70.23;94903.09;5064619;28;20258;-91
2023/02/26 03:57:39;;;;;;;2.67;1.27;;;;;;;1.81;70.53;94898.28;5069922;28;20614;-92
2023/02/26 04:00:13;;;;;;;3.30;1.70;;;;;;;1.82;71.01;94914.31;5069687;28;20214;-89
2023/02/26 04:03:01;;;;;;;2.13;1.30;;;;;;;1.67;71.34;94908.91;5070020;28;20216;-89
2023/02/26 04:05:36;;;;;;;1.80;1.50;;;;;;;1.74;71.07;94913.25;5069764;28;20192;-92
2023/02/26 04:08:04;;;;;;;3.30;1.60;;;;;;;1.83;70.06;94916.72;5068899;28;20282;-92
2023/02/26 04:10:39;;;;;;;2.33;1.60;;;;;;;1.83;69.92;94921.00;5068548;28;20417;-92
2023/02/26 04:13:19;;;;;;;3.47;1.77;;;;;;;1.79;70.02;94917.13;5069337;28;20223;-91
2023/02/26 04:15:54;;;;;;;1.67;1.40;;;;;;;1.76;69.94;94920.75;5077591;28;20665;-91
2023/02/26 04:18:45;;;;;;;1.67;1.47;;;;;;;1.80;69.88;94918.72;5087376;28;20653;-93
2023/02/26 04:21:19;;;;;;;1.53;1.23;;;;;;;1.88;69.00;94914.56;5069870;28;20696;-91
2023/02/26 04:23:45;;;;;;;1.70;1.40;;;;;;;1.94;69.52;94915.72;5070112;28;20877;-92
2023/02/26 04:26:13;;;;;;;3.00;1.60;;;;;;;1.89;69.31;94923.78;5071921;28;20200;-92
2023/02/26 04:28:40;;;;;;;1.83;1.37;;;;;;;1.70;69.30;94917.03;5090598;28;20205;-91
2023/02/26 04:31:08;;;;;;;3.07;1.40;;;;;;;1.70;69.86;94924.66;5072841;28;20231;-92
2023/02/26 04:33:35;;;;;;;4.03;1.67;;;;;;;1.80;69.71;94929.69;5070451;28;20635;-91
2023/02/26 04:38:43;;;;;;;1.93;1.43;;;;;;;1.59;68.81;94932.41;5085289;28;20648;-92
2023/02/26 04:41:24;;;;;;;1.67;1.20;;;;;;;1.63;69.37;94936.28;5089419;28;20235;-91
2023/02/26 04:44:05;;;;;;;1.57;1.47;;;;;;;1.51;69.13;94941.66;5089620;28;20253;-92
2023/02/26 04:46:42;;;;;;;2.20;1.30;;;;;;;1.48;69.92;94937.66;5089185;28;20287;-92
2023/02/26 04:49:21;;;;;;;2.50;1.57;;;;;;;1.49;69.76;94941.00;5088532;28;20200;-91
2023/02/26 04:54:39;;;;;;;2.40;1.40;;;;;;;1.38;70.22;94945.28;5083280;28;20204;-92
2023/02/26 04:57:38;;;;;;;2.93;1.97;;;;;;;1.29;69.96;94946.09;5069200;28;20200;-92
2023/02/26 05:03:09;;;;;;;1.30;1.20;;;;;;;1.19;70.27;94942.75;5068526;28;20266;-91
2023/02/26 05:05:44;;;;;;;1.70;1.10;;;;;;;1.27;70.24;94950.50;5085582;28;20200;-92
2023/02/26 05:08:26;;;;;;;3.93;1.77;;;;;;;1.27;69.75;94932.75;5089020;28;20203;-91
2023/02/26 05:11:01;;;;;;;2.70;1.47;;;;;;;1.22;69.51;94945.03;5094186;28;20252;-91
2023/02/26 05:13:39;;;;;;;2.33;1.50;;;;;;;1.23;69.54;94945.81;5100277;28;20222;-91
2023/02/26 05:16:24;;;;;;;1.97;1.43;;;;;;;1.25;69.07;94956.63;5109088;28;20789;-92
2023/02/26 05:18:55;;;;;;;1.47;1.30;;;;;;;1.24;68.51;94949.97;5108777;28;20199;-91
2023/02/26 05:21:25;;;;;;;2.50;1.40;;;;;;;1.11;68.25;94942.66;5067998;28;20195;-92
2023/02/26 05:24:04;;;;;;;1.43;1.33;;;;;;;1.06;68.28;94956.66;5068058;28;20287;-91
2023/02/26 05:26:35;;;;;;;1.80;1.43;;;;;;;1.11;68.96;94960.41;5067842;28;20295;-91
2023/02/26 05:31:57;;;;;;;4.50;1.33;;;;;;;0.91;68.84;94971.47;5067542;28;20270;-92
2023/02/26 05:34:34;;;;;;;3.63;1.23;;;;;;;0.85;68.13;94964.38;5073158;28;20227;-90
2023/02/26 05:37:10;;;;;;;1.73;1.40;;;;;;;0.70;68.38;94974.13;5067379;28;20254;-92
2023/02/26 05:39:57;;;;;;;2.27;1.50;;;;;;;0.76;68.94;94973.59;5067788;28;20257;-92
2023/02/26 05:42:32;;;;;;;3.43;1.40;;;;;;;0.81;69.14;94973.97;5069926;28;20286;-91
2023/02/26 05:45:12;;;;;;;3.77;1.43;;;;;;;0.82;69.18;94967.19;5088318;28;20264;-90
2023/02/26 05:47:48;;;;;;;2.83;1.30;;;;;;;0.73;68.52;94976.38;5087110;28;20652;-92
2023/02/26 05:53:00;;;;;;;3.43;1.80;;;;;;;0.77;68.68;94982.75;5078976;28;20232;-91
2023/02/26 05:55:59;;;;;;;1.53;1.27;;;;;;;0.66;69.31;94990.50;5085764;28;20873;-90
2023/02/26 05:58:30;;;;;;;2.53;1.40;;;;;;;0.61;69.26;94988.34;5086786;28;20200;-90
2023/02/26 06:01:08;;;;;;;3.43;1.33;;;;;;;0.63;68.76;94983.94;5086764;28;20413;-91
2023/02/26 06:06:28;;;;;;;1.60;1.50;;;;;;;0.60;68.62;94993.53;5067239;28;20208;-90
2023/02/26 06:09:02;;;;;;;2.33;1.43;;;;;;;0.61;69.12;94985.00;5099005;28;20275;-91
2023/02/26 06:11:43;;;;;;;3.93;1.53;;;;;;;0.60;68.70;94989.28;5106981;28;20304;-90
2023/02/26 06:14:21;;;;;;;1.57;1.33;;;;;;;0.76;68.27;94993.84;5106869;28;20210;-90
2023/02/26 06:25:32;;;;;;;3.47;1.50;;;;;;;0.44;68.35;95026.97;5085348;28;20210;-91
2023/02/26 06:28:09;;;;;;;2.37;1.70;;;;;;;0.33;69.13;95038.00;5086938;28;20199;-90
2023/02/26 06:31:01;;;;;;;2.73;1.70;;;;;;;0.28;68.80;95046.88;5086578;28;20497;-91
2023/02/26 06:33:40;;;;;;;2.07;1.23;;;;;;;0.45;68.93;95053.88;5086385;28;20696;-90
2023/02/26 06:36:12;;;;;;;3.43;2.33;;;;;;;0.48;68.22;95066.28;5086651;28;20600;-91
2023/02/26 06:38:44;;;;;;;1.43;1.33;;;;;;;0.47;67.86;95063.88;5087074;28;20710;-91
2023/02/26 06:41:41;;;;;;;2.90;1.60;;;;;;;0.47;67.67;95067.22;5086636;28;20219;-91
2023/02/26 06:44:17;;;;;;;2.37;1.63;;;;;;;0.63;67.43;95069.28;5081031;28;20215;-90
2023/02/26 06:46:47;;;;;;;1.93;1.73;;;;;;;0.69;66.69;95078.91;5086139;28;20199;-90
2023/02/26 06:49:23;;;;;;;3.00;1.77;;;;;;;0.73;67.01;95079.44;5087118;28;20368;-91
2023/02/26 06:51:53;;;;;;;2.80;1.40;;;;;;;0.76;67.66;95076.66;5077179;28;20311;-91
2023/02/26 06:54:33;;;;;;;2.33;1.60;;;;;;;0.61;67.15;95084.59;5067849;28;20295;-90
2023/02/26 06:57:15;;;;;;;3.57;1.53;;;;;;;0.58;67.83;95084.84;5073200;28;20192;-92
2023/02/26 06:59:49;;;;;;;2.30;1.63;;;;;;;0.72;66.59;95082.91;5079835;28;20204;-92
2023/02/26 07:02:31;;;;;;;2.77;1.70;;;;;;;0.40;66.58;95096.50;5084519;28;20280;-92
2023/02/26 07:07:54;;;;;;;3.67;1.50;;;;;;;0.77;66.81;95108.66;5098693;28;20200;-91
2023/02/26 07:10:32;;;;;;;2.70;1.77;;;;;;;0.96;66.37;95109.50;5109338;28;20255;-91
2023/02/26 07:13:06;;;;;;;4.30;1.70;;;;;;;1.19;66.57;95109.28;5113942;28;20223;-92
2023/02/26 07:18:47;;;;;;;2.03;1.57;;;;;;;1.28;65.80;95116.13;5114263;28;20286;-92
2023/02/26 07:21:38;;;;;;;2.67;1.40;;;;;;;1.28;65.44;95119.44;5099557;28;20200;-92
2023/02/26 07:24:30;;;;;;;1.50;1.40;;;;;;;1.35;64.64;95124.78;5099411;28;20196;-92
2023/02/26 07:27:21;;;;;;;;;;;;;;;;;;;;;
2023/02/26 07:32:39;;;;;;;2.47;1.67;;;;;;;1.28;65.43;95142.28;5074507;28;20228;-92
2023/02/26 07:38:07;;;;;;;2.10;1.60;;;;;;;1.32;64.75;95141.09;5070638;28;20200;-92
2023/02/26 07:43:43;;;;;;;1.87;1.70;;;;;;;1.44;64.33;95134.16;5078340;28;20601;-92
2023/02/26 07:47:00;;;;;;;3.47;1.60;;;;;;;1.52;64.46;95146.19;5089760;28;20214;-92
2023/02/26 07:53:16;;;;;;;3.17;1.60;;;;;;;1.91;63.58;95144.47;4994970;28;20234;-92
2023/02/26 07:55:57;;;;;;;2.97;1.70;;;;;;;2.12;63.14;95137.47;5082515;28;20537;-92
2023/02/26 07:58:24;;;;;;;2.83;1.60;;;;;;;2.17;63.14;95137.88;5090088;28;20706;-92
2023/02/26 08:01:08;;;;;;;1.73;1.60;;;;;;;1.99;61.93;95136.97;5098073;28;20203;-91
2023/02/26 08:03:46;;;;;;;2.23;1.60;;;;;;;2.13;63.01;95139.06;5109251;28;20198;-93
2023/02/26 08:06:21;;;;;;;1.90;1.63;;;;;;;2.24;62.97;95138.13;5069497;28;20193;-92
2023/02/26 08:09:17;;;;;;;2.93;1.50;;;;;;;2.12;61.81;95146.84;5069184;28;20287;-92
2023/02/26 08:11:51;;;;;;;1.87;1.60;;;;;;;1.99;62.40;95150.44;5068818;28;20795;-92
2023/02/26 08:14:31;;;;;;;2.33;1.60;;;;;;;1.94;62.58;95156.84;5069595;28;20292;-92
2023/02/26 08:19:45;;;;;;;3.20;1.80;;;;;;;2.12;62.98;95159.53;5084264;28;20626;-92
2023/02/26 08:22:13;;;;;;;3.43;1.90;;;;;;;2.17;62.27;95160.72;5088770;28;20592;-93
2023/02/26 08:24:45;;;;;;;2.37;1.80;;;;;;;2.24;62.30;95161.00;5088508;28;20200;-92
2023/02/26 08:27:17;;;;;;;2.13;1.80;;;;;;;2.29;62.42;95171.56;5088854;28;20196;-92
2023/02/26 08:29:49;;;;;;;2.47;1.70;;;;;;;2.26;62.81;95171.81;5088326;28;20196;-92
2023/02/26 08:38:08;;;;;;;3.00;1.60;;;;;;;2.11;62.71;95188.41;5087474;28;20214;-92
2023/02/26 08:43:51;;;;;;;2.33;2.00;;;;;;;2.16;62.33;95189.59;5070317;28;20197;-91
2023/02/26 08:46:32;;;;;;;3.03;1.90;;;;;;;2.19;62.90;95199.47;5068085;28;20199;-92
2023/02/26 08:49:03;;;;;;;2.30;2.10;;;;;;;2.21;63.15;95189.19;5067670;28;20211;-92
2023/02/26 08:51:37;;;;;;;2.53;1.90;;;;;;;2.26;63.13;95194.69;5067582;28;20224;-92
2023/02/26 08:54:29;;;;;;;2.43;1.93;;;;;;;2.28;62.53;95203.78;5067901;28;20304;-92
2023/02/26 08:57:28;;;;;;;2.63;1.87;;;;;;;2.29;62.63;95204.56;5091657;28;20193;-92
2023/02/26 09:00:09;;;;;;;3.50;2.10;;;;;;;2.28;62.56;95201.22;5065328;28;20695;-92
2023/02/26 09:02:58;;;;;;;3.33;2.40;;;;;;;2.27;62.71;95214.06;5067429;28;20224;-92
2023/02/26 09:08:45;;;;;;;2.67;1.90;;;;;;;2.07;62.61;95226.75;5087606;28;20200;-92
2023/02/26 09:17:01;;;;;;;2.47;2.10;;;;;;;1.81;64.41;95240.09;5017985;28;20221;-92
2023/02/26 09:25:33;;;;;;;3.63;2.30;;;;;;;2.20;64.07;95234.09;5006526;28;20349;-92
2023/02/26 09:28:22;;;;;;;2.57;2.07;;;;;;;2.30;63.89;95244.28;5007504;28;20609;-92
2023/02/26 09:31:41;;;;;;;2.43;2.20;;;;;;;2.33;63.99;95254.13;5007018;28;20211;-92
2023/02/26 09:34:36;;;;;;;3.03;2.20;;;;;;;2.23;63.97;95255.91;5007058;28;20221;-94
2023/02/26 09:37:13;;;;;;;2.37;2.17;;;;;;;2.22;64.18;95261.91;5006609;28;20232;-92
2023/02/26 09:39:55;;;;;;;3.00;2.40;;;;;;;2.33;63.70;95260.03;5006048;28;20204;-92
2023/02/26 09:45:27;;;;;;;2.43;2.23;;;;;;;2.06;64.42;95270.84;5023255;28;20198;-92
2023/02/26 09:48:13;;;;;;;2.67;2.47;;;;;;;2.14;64.95;95260.03;5025877;28;20260;-92
2023/02/26 09:57:47;;;;;;;;;;;;;;;;;;;;;
2023/02/26 10:01:14;;;;;;;5.33;3.07;;;;;;;2.39;72.50;95269.66;4964060;28;20211;-92
2023/02/26 10:04:18;;;;;;;4.93;3.00;;;;;;;2.48;68.46;95279.97;4988301;28;20206;-92
2023/02/26 10:17:34;;;;;;;;;;;;;;;;;;;;;
2023/02/26 10:20:57;;;;;;;2.83;2.63;;;;;;;2.46;64.41;95281.84;4926196;29;20232;-92
2023/02/26 10:35:41;;;;;;;2.63;2.43;;;;;;;3.33;63.42;95262.91;4948646;28;20251;-92
2023/02/26 10:38:51;;;;;;;3.30;2.37;;;;;;;3.27;63.46;95262.69;4832114;29;20207;-91
2023/02/26 10:41:51;;;;;;;3.00;2.70;;;;;;;3.23;63.83;95268.97;4903563;29;20213;-92
2023/02/26 10:44:56;;;;;;;3.23;2.67;;;;;;;3.29;63.71;95265.84;4945390;29;20220;-93
2023/02/26 10:51:12;;;;;;;2.47;2.27;;;;;;;3.02;62.89;95251.38;4946951;29;20265;-92
2023/02/26 10:57:12;;;;;;;13.73;10.43;;;;;;;2.80;63.48;95249.94;4889430;29;20207;-92
2023/02/26 11:02:57;;;;;;;2.90;2.30;;;;;;;2.72;64.55;95242.19;4852526;29;20471;-91
2023/02/26 11:08:25;;;;;;;2.57;2.37;;;;;;;2.75;64.42;95247.81;4852860;29;20773;-92
2023/02/26 11:11:08;;;;;;;2.83;2.50;;;;;;;2.87;64.08;95243.38;4944428;29;20229;-92
2023/02/26 11:16:30;;;;;;;2.60;2.40;;;;;;;2.87;63.27;95229.88;4948631;29;20208;-92
2023/02/26 11:22:17;;;;;;;2.57;2.43;;;;;;;3.30;63.47;95239.47;4950694;28;20291;-92
2023/02/26 11:24:59;;;;;;;6.60;2.50;;;;;;;3.26;62.22;95243.25;4954108;29;20295;-92
2023/02/26 11:27:39;;;;;;;2.70;2.50;;;;;;;3.20;62.09;95254.78;4952074;29;20240;-92
2023/02/26 11:47:28;;;;;;;2.70;2.50;;;;;;;3.54;61.63;95272.84;4882960;29;20684;-93
2023/02/26 11:50:57;;;;;;;2.10;2.00;;;;;;;3.55;61.10;95276.22;4922687;29;20732;-92
2023/02/26 11:59:35;;;;;;;3.03;2.20;;;;;;;3.03;65.68;95289.38;4931092;29;20292;-93
2023/02/26 12:05:10;;;;;;;2.77;2.00;;;;;;;3.07;64.61;95293.25;4950464;29;20208;-93
2023/02/26 12:07:49;;;;;;;2.20;2.10;;;;;;;3.14;64.98;95290.94;4950227;29;20662;-92
2023/02/26 12:10:38;;;;;;;2.20;2.10;;;;;;;3.15;65.41;95284.91;4950719;29;20236;-92
2023/02/26 12:13:25;;;;;;;2.20;2.00;;;;;;;3.19;65.83;95281.16;4949736;29;20239;-93
2023/02/26 12:16:06;;;;;;;2.00;1.90;;;;;;;3.37;64.76;95284.59;4950350;29;20213;-93
2023/02/26 12:19:13;;;;;;;1.97;1.87;;;;;;;3.83;62.83;95289.75;4950175;29;20204;-92
2023/02/26 12:22:22;;;;;;;1.93;1.83;;;;;;;4.40;61.77;95289.38;4930852;29;20228;-91
2023/02/26 12:25:07;;;;;;;2.00;1.90;;;;;;;4.92;60.35;95286.91;4930567;29;20197;-91
2023/02/26 12:28:02;;;;;;;2.87;1.70;;;;;;;5.00;59.51;95289.53;4930227;29;20215;-91
2023/02/26 12:33:55;;;;;;;2.00;1.80;;;;;;;5.62;57.16;95279.94;4942896;29;20587;-91
2023/02/26 12:37:11;;;;;;;1.70;1.60;;;;;;;5.54;54.24;95278.16;4949474;29;20205;-91
2023/02/26 12:40:11;;;;;;;17.27;12.33;;;;;;;5.27;53.88;95280.91;4949442;29;20209;-91
2023/02/26 12:43:06;;;;;;;3.80;3.30;;;;;;;5.23;54.65;95271.94;4941715;28;20308;-91
2023/02/26 12:46:07;;;;;;;2.00;1.70;;;;;;;4.36;54.87;95267.66;4949745;29;20223;-91
2023/02/26 12:48:53;;;;;;;1.80;1.70;;;;;;;4.39;56.82;95274.22;4948701;29;20204;-91
2023/02/26 12:51:38;;;;;;;2.50;2.30;;;;;;;4.50;55.97;95267.16;4949239;28;20209;-92
2023/02/26 12:54:35;;;;;;;1.77;1.57;;;;;;;4.61;55.47;95263.56;4949335;29;20220;-92
2023/02/26 12:57:45;;;;;;;2.33;1.93;;;;;;;4.72;55.63;95258.22;4948184;29;20200;-91
2023/02/26 13:00:42;;;;;;;1.63;1.53;;;;;;;4.75;53.77;95249.50;4950004;29;20578;-91
2023/02/26 13:03:55;;;;;;;1.60;1.50;;;;;;;4.30;54.79;95250.41;4951263;28;20232;-92
2023/02/26 13:06:42;;;;;;;2.17;1.40;;;;;;;4.33;54.99;95250.13;4925248;29;20682;-92
2023/02/26 13:09:36;;;;;;;1.50;1.40;;;;;;;4.26;54.64;95254.19;4930711;29;20686;-91
2023/02/26 13:12:38;;;;;;;1.73;1.47;;;;;;;4.36;55.39;95260.03;4931397;29;20512;-91
2023/02/26 13:15:38;;;;;;;1.70;1.60;;;;;;;4.34;55.95;95259.38;4853113;29;20242;-91
2023/02/26 13:18:28;;;;;;;2.00;1.70;;;;;;;3.75;57.90;95264.97;4931122;29;20198;-92
2023/02/26 13:21:25;;;;;;;1.60;1.50;;;;;;;2.97;63.21;95277.22;4946400;29;20279;-92
2023/02/26 13:30:02;;;;;;;;;;;;;;;;;;;;;
2023/02/26 13:33:00;;;;;;;19.30;15.10;;;;;;;3.05;71.22;95294.34;4948649;28;20239;-93
2023/02/26 13:36:19;;;;;;;2.30;2.10;;;;;;;3.09;70.13;95283.72;4949168;29;20215;-92
2023/02/26 13:39:10;;;;;;;2.30;2.13;;;;;;;3.44;68.43;95275.47;4925897;29;20284;-92
2023/02/26 13:42:07;;;;;;;2.30;2.10;;;;;;;3.68;65.56;95277.47;4948801;28;20325;-91
2023/02/26 13:45:00;;;;;;;2.37;2.00;;;;;;;3.92;64.18;95282.03;4944049;29;20232;-91
2023/02/26 13:57:37;;;;;;;2.17;2.00;;;;;;;3.18;67.09;95284.66;4915835;29;20966;-93
2023/02/26 14:00:38;;;;;;;2.50;2.30;;;;;;;3.46;64.76;95293.13;4944308;29;20220;-92
2023/02/26 14:07:34;;;;;;;2.97;2.50;;;;;;;3.92;62.37;95287.13;4863082;29;20217;-93
2023/02/26 14:13:28;;;;;;;1.90;1.80;;;;;;;3.77;59.43;95293.66;4904279;29;20312;-92
2023/02/26 14:16:28;;;;;;;1.97;1.87;;;;;;;3.21;59.10;95286.13;4929278;29;20201;-92
2023/02/26 14:19:27;;;;;;;2.47;2.17;;;;;;;3.25;59.39;95279.81;4929515;29;20268;-93
2023/02/26 14:25:52;;;;;;;2.77;2.40;;;;;;;3.44;57.45;95283.09;4946715;29;20263;-91
2023/02/26 14:28:44;;;;;;;2.40;2.20;;;;;;;4.06;56.89;95284.09;4939779;29;20597;-91
2023/02/26 14:31:57;;;;;;;;;;;;;;;;;;;;;
2023/02/26 14:34:49;;;;;;;2.27;2.10;;;;;;;4.33;55.60;95290.09;4947278;29;20225;-91
2023/02/26 14:40:16;;;;;;;2.20;2.00;;;;;;;4.83;53.44;95293.69;4944717;29;20203;-91
2023/02/26 14:42:55;;;;;;;2.40;2.20;;;;;;;5.19;53.06;95294.44;4948271;28;20426;-91
2023/02/26 14:45:55;;;;;;;;;;;;;;;;;;;;;
2023/02/26 14:48:36;;;;;;;1.93;1.60;;;;;;;4.00;52.05;95296.63;4947907;29;20197;-92
2023/02/26 14:54:58;;;;;;;1.70;1.60;;;;;;;3.46;53.48;95304.09;4932928;28;20280;-94
2023/02/26 14:57:59;;;;;;;1.93;1.73;;;;;;;3.64;53.95;95314.34;4896641;29;20292;-92
2023/02/26 15:01:00;;;;;;;3.13;2.30;;;;;;;3.53;53.07;95321.34;4928445;29;20257;-92
2023/02/26 15:07:36;;;;;;;1.60;1.50;;;;;;;3.43;53.98;95316.31;4830774;29;20212;-92
2023/02/26 15:10:27;;;;;;;1.77;1.63;;;;;;;3.34;55.17;95332.41;4833179;29;20223;-92
2023/02/26 15:13:47;;;;;;;2.10;1.60;;;;;;;3.46;55.69;95329.53;4832919;29;20382;-92
2023/02/26 15:20:00;;;;;;;2.47;2.27;;;;;;;3.67;55.66;95318.34;4922621;29;20201;-91
2023/02/26 15:23:04;;;;;;;1.83;1.70;;;;;;;3.69;56.30;95319.81;4947744;28;20801;-92
2023/02/26 15:25:48;;;;;;;2.03;1.70;;;;;;;3.29;58.19;95337.09;4948066;29;20212;-92
2023/02/26 15:28:34;;;;;;;2.20;1.80;;;;;;;3.11;59.12;95342.09;4948218;28;20359;-93
2023/02/26 15:31:09;;;;;;;2.17;1.97;;;;;;;3.26;59.26;95339.94;4948071;29;20197;-92
2023/02/26 15:33:47;;;;;;;2.13;1.93;;;;;;;2.93;58.42;95352.16;4947786;28;20221;-92
2023/02/26 15:36:20;;;;;;;2.10;1.90;;;;;;;2.76;59.11;95360.47;4947564;29;20217;-92
2023/02/26 15:39:33;;;;;;;2.23;2.03;;;;;;;2.75;60.09;95364.75;4948978;28;20216;-93
2023/02/26 15:45:39;;;;;;;;;;;;;;;;;;;;;
2023/02/26 15:48:19;;;;;;;2.73;2.20;;;;;;;2.73;60.10;95366.59;4932331;29;20205;-91
2023/02/26 15:51:10;;;;;;;2.30;2.10;;;;;;;2.76;59.83;95361.25;4940316;29;20201;-92
2023/02/26 15:53:50;;;;;;;2.20;2.00;;;;;;;2.95;59.76;95364.72;4951463;29;20228;-91
2023/02/26 15:59:16;;;;;;;2.30;2.00;;;;;;;3.18;59.53;95360.16;4949231;29;20264;-93
2023/02/26 16:01:47;;;;;;;1.97;1.70;;;;;;;3.31;59.54;95374.19;4949958;28;20232;-92
2023/02/26 16:07:30;;;;;;;2.20;1.93;;;;;;;3.33;57.69;95374.03;4931876;29;20792;-92
2023/02/26 16:10:06;;;;;;;2.30;2.10;;;;;;;3.37;57.37;95386.38;4951098;29;20227;-92
2023/02/26 16:12:52;;;;;;;2.83;2.03;;;;;;;3.22;56.75;95381.84;4950885;28;20236;-91
2023/02/26 16:15:40;;;;;;;2.30;2.10;;;;;;;3.24;56.74;95385.06;4950715;29;20607;-92
2023/02/26 16:18:11;;;;;;;2.00;1.90;;;;;;;3.30;57.33;95387.84;4950992;29;20288;-92
2023/02/26 16:20:51;;;;;;;2.10;1.90;;;;;;;3.39;56.85;95387.03;4950447;29;20200;-92
2023/02/26 16:23:35;;;;;;;2.93;2.50;;;;;;;3.41;56.68;95400.41;4950606;29;20752;-92
2023/02/26 16:29:30;;;;;;;3.83;2.00;;;;;;;3.18;56.17;95405.94;4946444;29;20220;-91
2023/02/26 16:32:05;;;;;;;2.20;1.90;;;;;;;3.17;55.22;95409.41;4952830;28;20213;-91
2023/02/26 16:34:50;;;;;;;2.00;1.80;;;;;;;3.15;54.98;95413.84;4954971;29;20248;-91
2023/02/26 16:37:32;;;;;;;2.87;1.77;;;;;;;2.79;55.80;95426.28;4951305;29;20244;-92
2023/02/26 16:40:36;;;;;;;2.10;1.90;;;;;;;2.54;59.02;95435.22;4950500;29;20205;-91
2023/02/26 16:43:26;;;;;;;2.17;1.90;;;;;;;2.30;61.51;95444.94;4935474;28;20258;-92
2023/02/26 16:46:47;;;;;;;;;;;;;;;;;;;;;
2023/02/26 16:49:31;;;;;;;2.20;2.00;;;;;;;2.60;61.36;95444.84;4950006;28;20212;-92
2023/02/26 16:54:59;;;;;;;2.63;2.20;;;;;;;2.84;61.69;95456.41;4948608;29;20224;-92
2023/02/26 16:57:43;;;;;;;1.90;1.70;;;;;;;2.86;61.60;95473.13;4949943;29;20200;-92
2023/02/26 17:00:56;;;;;;;2.30;2.10;;;;;;;2.93;61.71;95474.19;4949503;29;20244;-91
2023/02/26 17:03:32;;;;;;;2.30;2.07;;;;;;;2.97;61.15;95474.75;4949424;28;20783;-91
2023/02/26 17:09:09;;;;;;;2.10;1.90;;;;;;;2.93;61.07;95486.09;4948211;28;20193;-92
2023/02/26 17:11:50;;;;;;;3.23;2.03;;;;;;;3.02;60.83;95480.25;4948913;28;20209;-92
2023/02/26 17:14:36;;;;;;;2.30;2.10;;;;;;;3.05;61.14;95488.41;4949765;29;20209;-92
2023/02/26 17:20:01;;;;;;;3.13;2.60;;;;;;;2.96;61.27;95493.47;4947808;29;20205;-92
2023/02/26 17:22:46;;;;;;;2.47;2.17;;;;;;;2.80;61.69;95498.28;4947819;28;20804;-92
2023/02/26 17:25:31;;;;;;;2.43;2.13;;;;;;;2.76;62.11;95498.53;4946299;29;20875;-92
2023/02/26 17:28:22;;;;;;;3.23;2.30;;;;;;;2.70;62.14;95506.66;4946743;29;20628;-92
2023/02/26 17:30:55;;;;;;;3.07;2.20;;;;;;;2.58;62.68;95517.06;4947697;29;20207;-90
2023/02/26 17:33:51;;;;;;;1.93;1.70;;;;;;;2.58;61.76;95522.97;4947158;28;20241;-90